createdAt,value
2018-08-06T00:02:08.391Z,49.11
2018-08-06T00:07:04.479Z,49.93
2018-08-06T00:11:59.534Z,50.05
2018-08-06T00:16:54.649Z,50.39
2018-08-06T00:21:49.275Z,49.28
2018-08-06T00:26:44.127Z,49.89
2018-08-06T00:31:38.743Z,50.86
2018-08-06T00:36:33.462Z,50.40
2018-08-06T00:41:28.506Z,51.16
2018-08-06T00:46:24.219Z,52.01
2018-08-06T00:51:18.980Z,53.64
2018-08-06T00:56:13.663Z,53.22
2018-08-06T01:01:08.521Z,53.60
2018-08-06T01:06:03.275Z,54.90
2018-08-06T01:10:58.260Z,55.67
2018-08-06T01:15:53.188Z,55.50
2018-08-06T01:20:47.879Z,56.35
2018-08-06T01:25:42.606Z,56.34
2018-08-06T01:30:37.226Z,56.88
2018-08-06T01:35:31.851Z,56.56
2018-08-06T01:40:26.507Z,57.58
2018-08-06T01:45:21.178Z,57.86
2018-08-06T01:50:16.767Z,57.52
2018-08-06T01:55:11.464Z,57.98
2018-08-06T02:00:15.166Z,58.43
2018-08-06T02:05:10.503Z,58.64
2018-08-06T02:10:06.979Z,57.37
2018-08-06T02:15:03.532Z,58.70
2018-08-06T02:19:58.288Z,59.85
2018-08-06T02:24:52.915Z,58.51
2018-08-06T02:29:47.616Z,57.47
2018-08-06T02:34:42.378Z,57.65
2018-08-06T02:39:38.557Z,57.51
2018-08-06T02:44:33.367Z,58.17
2018-08-06T02:49:28.270Z,58.60
2018-08-06T02:54:22.928Z,57.84
2018-08-06T02:59:18.276Z,58.39
2018-08-06T03:04:13.170Z,59.35
2018-08-06T03:09:11.532Z,58.59
2018-08-06T03:14:06.375Z,58.64
2018-08-06T03:19:01.136Z,60.21
2018-08-06T03:23:55.868Z,58.25
2018-08-06T03:28:51.708Z,59.03
2018-08-06T03:33:46.307Z,58.57
2018-08-06T03:38:43.038Z,59.10
2018-08-06T03:43:37.735Z,60.71
2018-08-06T03:48:32.399Z,61.10
2018-08-06T03:53:27.310Z,61.26
2018-08-06T03:58:22.000Z,60.72
2018-08-06T04:03:16.668Z,60.64
2018-08-06T04:08:12.217Z,61.39
2018-08-06T04:13:07.040Z,60.98
2018-08-06T04:18:01.842Z,61.07
2018-08-06T04:22:56.489Z,61.12
2018-08-06T04:27:51.125Z,61.45
2018-08-06T04:32:46.912Z,61.13
2018-08-06T04:37:41.859Z,61.46
2018-08-06T04:42:37.031Z,61.03
2018-08-06T04:47:32.560Z,61.57
2018-08-06T04:52:27.300Z,59.32
2018-08-06T04:57:22.291Z,61.07
2018-08-06T05:02:17.239Z,59.78
2018-08-06T05:07:12.039Z,59.79
2018-08-06T05:12:07.543Z,57.22
2018-08-06T05:17:02.625Z,59.74
2018-08-06T05:21:57.263Z,59.19
2018-08-06T05:26:52.257Z,58.43
2018-08-06T05:31:47.331Z,59.66
2018-08-06T05:36:48.614Z,60.28
2018-08-06T05:41:43.476Z,59.40
2018-08-06T05:46:38.488Z,60.32
2018-08-06T05:51:34.287Z,58.17
2018-08-06T05:56:29.227Z,56.78
2018-08-06T06:01:23.918Z,54.10
2018-08-06T06:06:18.801Z,54.99
2018-08-06T06:11:13.538Z,54.79
2018-08-06T06:16:09.378Z,52.87
2018-08-06T06:21:04.227Z,53.61
2018-08-06T06:26:01.778Z,51.90
2018-08-06T06:30:56.431Z,51.65
2018-08-06T06:35:51.094Z,51.80
2018-08-06T06:40:46.129Z,52.71
2018-08-06T06:45:41.066Z,50.88
2018-08-06T06:50:36.326Z,52.59
2018-08-06T06:55:31.082Z,52.17
2018-08-06T07:00:25.895Z,52.19
2018-08-06T07:05:20.614Z,50.71
2018-08-06T07:10:15.344Z,51.30
2018-08-06T07:15:14.000Z,52.74
2018-08-06T07:20:09.278Z,50.48
2018-08-06T07:25:04.027Z,48.67
2018-08-06T07:29:58.766Z,48.07
2018-08-06T07:34:53.428Z,47.29
2018-08-06T07:39:47.998Z,47.16
2018-08-06T07:44:42.764Z,45.55
2018-08-06T07:49:37.640Z,47.79
2018-08-06T07:54:32.163Z,46.88
2018-08-06T07:59:26.974Z,47.45
2018-08-06T08:04:22.127Z,46.38
2018-08-06T08:09:16.950Z,46.16
2018-08-06T08:14:11.824Z,46.10
2018-08-06T08:19:06.751Z,45.25
2018-08-06T08:24:02.228Z,43.27
2018-08-06T08:28:57.278Z,44.40
2018-08-06T08:33:52.114Z,42.57
2018-08-06T08:51:36.246Z,43.82
2018-08-06T08:56:31.331Z,45.88
2018-08-06T09:01:26.269Z,45.37
2018-08-06T09:06:21.093Z,43.00
2018-08-06T09:11:15.893Z,41.42
2018-08-06T09:16:11.621Z,40.06
2018-08-06T09:21:06.720Z,41.06
2018-08-06T09:26:01.602Z,41.86
2018-08-06T09:30:56.404Z,39.24
2018-08-06T09:35:51.223Z,40.62
2018-08-06T09:40:46.392Z,40.49
2018-08-06T09:45:41.597Z,39.95
2018-08-06T09:50:36.458Z,38.36
2018-08-06T09:55:31.247Z,39.89
2018-08-06T10:00:31.276Z,38.95
2018-08-06T10:05:26.471Z,39.96
2018-08-06T10:10:21.657Z,38.64
2018-08-06T10:15:16.742Z,38.01
2018-08-06T10:20:19.945Z,39.57
2018-08-06T10:25:15.803Z,38.61
2018-08-06T10:30:16.915Z,38.14
2018-08-06T10:35:12.424Z,37.38
2018-08-06T10:40:26.745Z,37.18
2018-08-06T10:45:22.597Z,38.50
2018-08-06T10:50:17.390Z,36.65
2018-08-06T10:55:12.564Z,36.97
2018-08-06T11:00:12.470Z,37.27
2018-08-06T11:05:09.964Z,37.57
2018-08-06T11:10:06.927Z,35.22
2018-08-06T11:15:01.591Z,35.22
2018-08-06T11:19:56.337Z,36.81
2018-08-06T11:24:51.104Z,33.71
2018-08-06T11:29:45.836Z,34.54
2018-08-06T11:34:40.473Z,34.34
2018-08-06T11:39:35.096Z,34.59
2018-08-06T11:44:29.846Z,35.08
2018-08-06T11:49:25.528Z,33.49
2018-08-06T11:54:20.812Z,32.99
2018-08-06T11:59:15.179Z,32.12
2018-08-06T12:04:09.903Z,32.68
2018-08-06T12:09:06.600Z,33.60
2018-08-06T12:14:01.266Z,32.42
2018-08-06T12:18:55.929Z,35.14
2018-08-06T12:23:50.784Z,33.25
2018-08-06T12:28:45.523Z,31.93
2018-08-06T12:33:40.244Z,31.76
2018-08-06T12:38:48.249Z,32.06
2018-08-06T12:43:42.999Z,31.06
2018-08-06T12:48:37.736Z,28.64
2018-08-06T12:53:32.450Z,30.26
2018-08-06T12:58:27.250Z,30.62
2018-08-06T13:03:22.009Z,32.09
2018-08-06T13:08:16.762Z,32.46
2018-08-06T13:13:11.609Z,30.14
2018-08-06T13:18:06.652Z,31.17
2018-08-06T13:23:01.395Z,29.70
2018-08-06T13:27:56.186Z,32.90
2018-08-06T13:32:50.940Z,30.59
2018-08-06T13:37:45.646Z,30.40
2018-08-06T13:42:40.452Z,30.11
2018-08-06T13:47:35.072Z,30.80
2018-08-06T13:52:29.783Z,29.53
2018-08-06T13:57:24.547Z,30.44
2018-08-06T14:02:19.385Z,29.20
2018-08-06T14:07:14.055Z,28.44
2018-08-06T14:12:09.152Z,29.19
2018-08-06T14:17:03.964Z,31.32
2018-08-06T14:21:58.649Z,30.97
2018-08-06T14:26:53.295Z,30.52
2018-08-06T14:31:48.137Z,30.91
2018-08-06T14:36:42.798Z,31.30
2018-08-06T14:41:37.635Z,30.91
2018-08-06T14:46:32.375Z,29.84
2018-08-06T14:51:27.187Z,30.46
2018-08-06T14:56:21.599Z,30.07
2018-08-06T15:01:16.235Z,29.15
2018-08-06T15:06:11.079Z,28.61
2018-08-06T15:11:06.139Z,28.82
2018-08-06T15:16:00.771Z,29.55
2018-08-06T15:20:55.762Z,28.58
2018-08-06T15:25:50.566Z,28.43
2018-08-06T15:30:45.289Z,29.58
2018-08-06T15:35:40.108Z,30.02
2018-08-06T15:40:34.825Z,29.26
2018-08-06T15:45:29.581Z,30.03
2018-08-06T15:50:24.344Z,30.69
2018-08-06T16:08:08.429Z,30.81
2018-08-06T16:13:03.232Z,30.94
2018-08-06T16:17:57.948Z,32.77
2018-08-06T16:22:52.744Z,34.74
2018-08-06T16:27:47.408Z,35.53
2018-08-06T16:32:42.388Z,33.84
2018-08-06T16:37:37.927Z,32.06
2018-08-06T16:42:32.757Z,34.99
2018-08-06T16:47:27.551Z,34.81
2018-08-06T16:52:22.422Z,36.15
2018-08-06T16:57:17.116Z,37.03
2018-08-06T17:02:12.149Z,37.28
2018-08-06T17:07:06.892Z,37.77
2018-08-06T17:12:01.700Z,38.73
2018-08-06T17:16:56.637Z,37.20
2018-08-06T17:21:51.372Z,37.30
2018-08-06T17:26:45.976Z,37.57
2018-08-06T17:31:40.781Z,37.62
2018-08-06T17:36:35.586Z,38.80
2018-08-06T17:41:30.211Z,40.40
2018-08-06T17:46:25.562Z,47.11
2018-08-06T17:51:20.251Z,54.99
2018-08-06T17:56:16.023Z,72.83
2018-08-06T18:01:11.073Z,75.47
2018-08-06T18:06:06.133Z,76.44
2018-08-06T18:11:01.039Z,73.63
2018-08-06T18:15:56.107Z,76.36
2018-08-06T18:20:51.062Z,82.28
2018-08-06T18:25:45.954Z,81.00
2018-08-06T18:30:40.765Z,77.67
2018-08-06T18:35:35.585Z,77.72
2018-08-06T18:40:30.527Z,76.93
2018-08-06T18:45:26.344Z,76.45
2018-08-06T18:50:21.368Z,75.10
2018-08-06T18:55:16.907Z,75.98
2018-08-06T19:00:17.892Z,78.45
2018-08-06T19:05:12.671Z,76.69
2018-08-06T19:10:08.784Z,73.66
2018-08-06T19:15:03.959Z,70.04
2018-08-06T19:19:59.206Z,71.42
2018-08-06T19:24:59.181Z,74.57
2018-08-06T19:29:54.022Z,73.26
2018-08-06T19:34:52.757Z,73.81
2018-08-06T19:39:47.662Z,74.01
2018-08-06T19:44:42.548Z,74.51
2018-08-06T19:49:42.371Z,73.62
2018-08-06T19:54:37.350Z,74.12
2018-08-06T19:59:32.269Z,75.11
2018-08-06T20:04:27.028Z,76.25
2018-08-06T20:09:21.899Z,73.93
2018-08-06T20:14:17.006Z,73.91
2018-08-06T20:19:11.944Z,75.00
2018-08-06T20:24:07.340Z,75.68
2018-08-06T20:29:02.343Z,76.30
2018-08-06T20:33:58.189Z,77.02
2018-08-06T20:38:52.933Z,78.30
2018-08-06T20:43:47.734Z,76.93
2018-08-06T20:48:42.596Z,75.38
2018-08-06T20:53:37.372Z,77.51
2018-08-06T20:58:32.288Z,76.75
2018-08-06T21:03:27.185Z,77.37
2018-08-06T21:08:22.040Z,75.69
2018-08-06T21:13:17.730Z,76.86
2018-08-06T21:18:12.527Z,76.20
2018-08-06T21:23:07.412Z,75.10
2018-08-06T21:28:02.191Z,74.74
2018-08-06T21:32:57.875Z,76.18
2018-08-06T21:37:53.499Z,77.22
2018-08-06T21:42:49.159Z,75.96
2018-08-06T21:47:43.995Z,73.74
2018-08-06T21:52:38.939Z,77.05
2018-08-06T21:57:33.776Z,75.22
2018-08-06T22:02:28.743Z,75.73
2018-08-06T22:07:23.479Z,76.92
2018-08-06T22:12:19.203Z,75.76
2018-08-06T22:17:14.260Z,75.89
2018-08-06T22:22:09.755Z,75.78
2018-08-06T22:27:04.672Z,77.19
2018-08-06T22:31:59.496Z,74.78
2018-08-06T22:36:54.240Z,75.49
2018-08-06T22:41:48.995Z,75.78
2018-08-06T22:46:44.612Z,74.88
2018-08-06T22:51:39.338Z,74.17
2018-08-06T22:56:34.033Z,74.62
2018-08-06T23:01:28.776Z,76.21
2018-08-06T23:06:25.122Z,76.82
2018-08-06T23:11:19.872Z,75.45
2018-08-06T23:16:14.576Z,76.45
2018-08-06T23:21:09.256Z,75.26
2018-08-06T23:26:03.996Z,76.22
2018-08-06T23:30:58.305Z,75.64
2018-08-06T23:35:53.062Z,77.06
2018-08-06T23:40:47.758Z,78.11
2018-08-06T23:45:42.456Z,78.92
2018-08-06T23:50:37.057Z,79.36
2018-08-06T23:55:31.695Z,78.49
